sensor_id;sensor_type;location;lat;lon;timestamp;temperature;humidity
53782;DHT22;39692;53.114;7.060;2022-07-22T00:01:26;17.80;99.90
53782;DHT22;39692;53.114;7.060;2022-07-22T00:03:52;17.80;99.90
53782;DHT22;39692;53.114;7.060;2022-07-22T00:06:17;17.80;99.90
53782;DHT22;39692;53.114;7.060;2022-07-22T00:08:43;17.90;99.90
53782;DHT22;39692;53.114;7.060;2022-07-22T00:11:09;17.90;99.90
53782;DHT22;39692;53.114;7.060;2022-07-22T00:13:34;17.90;99.90
53782;DHT22;39692;53.114;7.060;2022-07-22T00:16:00;17.80;99.90
53782;DHT22;39692;53.114;7.060;2022-07-22T00:18:26;17.80;99.90
53782;DHT22;39692;53.114;7.060;2022-07-22T00:20:51;17.80;99.90
53782;DHT22;39692;53.114;7.060;2022-07-22T00:23:17;17.70;99.90
53782;DHT22;39692;53.114;7.060;2022-07-22T00:25:43;17.70;99.90
53782;DHT22;39692;53.114;7.060;2022-07-22T00:28:08;17.70;99.90
53782;DHT22;39692;53.114;7.060;2022-07-22T00:30:34;17.70;99.90
53782;DHT22;39692;53.114;7.060;2022-07-22T00:33:00;17.70;99.90
53782;DHT22;39692;53.114;7.060;2022-07-22T00:35:26;17.70;99.90
53782;DHT22;39692;53.114;7.060;2022-07-22T00:37:51;17.70;99.90
53782;DHT22;39692;53.114;7.060;2022-07-22T00:40:17;17.70;99.90
53782;DHT22;39692;53.114;7.060;2022-07-22T00:42:43;17.70;99.90
53782;DHT22;39692;53.114;7.060;2022-07-22T00:45:09;17.70;99.90
53782;DHT22;39692;53.114;7.060;2022-07-22T00:47:35;17.60;99.90
53782;DHT22;39692;53.114;7.060;2022-07-22T00:50:01;17.60;99.90
53782;DHT22;39692;53.114;7.060;2022-07-22T00:52:27;17.60;99.90
53782;DHT22;39692;53.114;7.060;2022-07-22T00:54:55;17.60;99.90
53782;DHT22;39692;53.114;7.060;2022-07-22T00:57:21;17.70;99.90
53782;DHT22;39692;53.114;7.060;2022-07-22T00:59:47;17.60;99.90
53782;DHT22;39692;53.114;7.060;2022-07-22T01:02:12;17.60;99.90
53782;DHT22;39692;53.114;7.060;2022-07-22T01:04:39;17.60;99.90
53782;DHT22;39692;53.114;7.060;2022-07-22T01:07:05;17.60;99.90
53782;DHT22;39692;53.114;7.060;2022-07-22T01:09:31;17.60;99.90
53782;DHT22;39692;53.114;7.060;2022-07-22T01:11:56;17.60;99.90
53782;DHT22;39692;53.114;7.060;2022-07-22T01:14:22;17.60;99.90
53782;DHT22;39692;53.114;7.060;2022-07-22T01:16:48;17.60;99.90
53782;DHT22;39692;53.114;7.060;2022-07-22T01:19:13;17.60;99.90
53782;DHT22;39692;53.114;7.060;2022-07-22T01:21:39;17.60;99.90
53782;DHT22;39692;53.114;7.060;2022-07-22T01:24:06;17.70;99.90
53782;DHT22;39692;53.114;7.060;2022-07-22T01:26:32;17.60;99.90
53782;DHT22;39692;53.114;7.060;2022-07-22T01:28:59;17.60;99.90
53782;DHT22;39692;53.114;7.060;2022-07-22T01:31:24;17.60;99.90
53782;DHT22;39692;53.114;7.060;2022-07-22T01:33:50;17.60;99.90
53782;DHT22;39692;53.114;7.060;2022-07-22T01:36:16;17.60;99.90
53782;DHT22;39692;53.114;7.060;2022-07-22T01:38:41;17.60;99.90
53782;DHT22;39692;53.114;7.060;2022-07-22T01:41:07;17.60;99.90
53782;DHT22;39692;53.114;7.060;2022-07-22T01:43:33;17.50;99.90
53782;DHT22;39692;53.114;7.060;2022-07-22T01:45:59;17.60;99.90
53782;DHT22;39692;53.114;7.060;2022-07-22T01:48:25;17.60;99.90
53782;DHT22;39692;53.114;7.060;2022-07-22T01:50:51;17.60;99.90
53782;DHT22;39692;53.114;7.060;2022-07-22T01:53:17;17.60;99.90
53782;DHT22;39692;53.114;7.060;2022-07-22T01:55:42;17.60;99.90
53782;DHT22;39692;53.114;7.060;2022-07-22T01:58:08;17.50;99.90
53782;DHT22;39692;53.114;7.060;2022-07-22T02:00:35;17.50;99.90
53782;DHT22;39692;53.114;7.060;2022-07-22T02:03:01;17.50;99.90
53782;DHT22;39692;53.114;7.060;2022-07-22T02:05:26;17.50;99.90
53782;DHT22;39692;53.114;7.060;2022-07-22T02:07:52;17.50;99.90
53782;DHT22;39692;53.114;7.060;2022-07-22T02:10:18;17.50;99.90
53782;DHT22;39692;53.114;7.060;2022-07-22T02:12:44;17.60;99.90
53782;DHT22;39692;53.114;7.060;2022-07-22T02:15:10;17.50;99.90
53782;DHT22;39692;53.114;7.060;2022-07-22T02:17:36;17.50;99.90
53782;DHT22;39692;53.114;7.060;2022-07-22T02:20:03;17.50;99.90
53782;DHT22;39692;53.114;7.060;2022-07-22T02:22:28;17.50;99.90
53782;DHT22;39692;53.114;7.060;2022-07-22T02:24:55;17.50;99.90
53782;DHT22;39692;53.114;7.060;2022-07-22T02:27:21;17.60;99.90
53782;DHT22;39692;53.114;7.060;2022-07-22T02:29:46;17.60;99.90
53782;DHT22;39692;53.114;7.060;2022-07-22T02:32:12;17.60;99.90
53782;DHT22;39692;53.114;7.060;2022-07-22T02:34:38;17.50;99.90
53782;DHT22;39692;53.114;7.060;2022-07-22T02:37:03;17.60;99.90
53782;DHT22;39692;53.114;7.060;2022-07-22T02:39:29;17.60;99.90
53782;DHT22;39692;53.114;7.060;2022-07-22T02:41:55;17.60;99.90
53782;DHT22;39692;53.114;7.060;2022-07-22T02:44:20;17.60;99.90
53782;DHT22;39692;53.114;7.060;2022-07-22T02:46:46;17.60;99.90
53782;DHT22;39692;53.114;7.060;2022-07-22T02:49:12;17.50;99.90
53782;DHT22;39692;53.114;7.060;2022-07-22T02:51:38;17.50;99.90
53782;DHT22;39692;53.114;7.060;2022-07-22T02:54:03;17.60;99.90
53782;DHT22;39692;53.114;7.060;2022-07-22T02:56:29;17.60;99.90
53782;DHT22;39692;53.114;7.060;2022-07-22T02:58:55;17.60;99.90
53782;DHT22;39692;53.114;7.060;2022-07-22T03:01:20;17.50;99.90
53782;DHT22;39692;53.114;7.060;2022-07-22T03:03:46;17.50;99.90
53782;DHT22;39692;53.114;7.060;2022-07-22T03:06:12;17.50;99.90
53782;DHT22;39692;53.114;7.060;2022-07-22T03:08:38;17.50;99.90
53782;DHT22;39692;53.114;7.060;2022-07-22T03:11:04;17.50;99.90
53782;DHT22;39692;53.114;7.060;2022-07-22T03:13:30;17.50;99.90
53782;DHT22;39692;53.114;7.060;2022-07-22T03:15:55;17.50;99.90
53782;DHT22;39692;53.114;7.060;2022-07-22T03:18:21;17.50;99.90
53782;DHT22;39692;53.114;7.060;2022-07-22T03:20:47;17.50;99.90
53782;DHT22;39692;53.114;7.060;2022-07-22T03:23:13;17.50;99.90
53782;DHT22;39692;53.114;7.060;2022-07-22T03:25:39;17.50;99.90
53782;DHT22;39692;53.114;7.060;2022-07-22T03:28:05;17.50;99.90
53782;DHT22;39692;53.114;7.060;2022-07-22T03:30:31;17.50;99.90
53782;DHT22;39692;53.114;7.060;2022-07-22T03:32:57;17.50;99.90
53782;DHT22;39692;53.114;7.060;2022-07-22T03:35:22;17.50;99.90
53782;DHT22;39692;53.114;7.060;2022-07-22T03:37:49;17.50;99.90
53782;DHT22;39692;53.114;7.060;2022-07-22T03:40:14;17.40;99.90
53782;DHT22;39692;53.114;7.060;2022-07-22T03:42:41;17.40;99.90
53782;DHT22;39692;53.114;7.060;2022-07-22T03:45:08;17.40;99.90
53782;DHT22;39692;53.114;7.060;2022-07-22T03:47:34;17.50;99.90
53782;DHT22;39692;53.114;7.060;2022-07-22T03:50:00;17.50;99.90
53782;DHT22;39692;53.114;7.060;2022-07-22T03:52:30;17.50;99.90
53782;DHT22;39692;53.114;7.060;2022-07-22T03:54:55;17.40;99.90
53782;DHT22;39692;53.114;7.060;2022-07-22T03:57:21;17.50;99.90
53782;DHT22;39692;53.114;7.060;2022-07-22T03:59:47;17.50;99.90
53782;DHT22;39692;53.114;7.060;2022-07-22T04:02:14;17.50;99.90
53782;DHT22;39692;53.114;7.060;2022-07-22T04:04:39;17.50;99.90
53782;DHT22;39692;53.114;7.060;2022-07-22T04:07:05;17.50;99.90
53782;DHT22;39692;53.114;7.060;2022-07-22T04:09:31;17.50;99.90
53782;DHT22;39692;53.114;7.060;2022-07-22T04:11:56;17.50;99.90
53782;DHT22;39692;53.114;7.060;2022-07-22T04:14:22;17.50;99.90
53782;DHT22;39692;53.114;7.060;2022-07-22T04:16:48;17.50;99.90
53782;DHT22;39692;53.114;7.060;2022-07-22T04:19:14;17.40;99.90
53782;DHT22;39692;53.114;7.060;2022-07-22T04:21:40;17.40;99.90
53782;DHT22;39692;53.114;7.060;2022-07-22T04:24:06;17.30;99.90
53782;DHT22;39692;53.114;7.060;2022-07-22T04:26:32;17.20;99.90
53782;DHT22;39692;53.114;7.060;2022-07-22T04:28:58;17.30;99.90
53782;DHT22;39692;53.114;7.060;2022-07-22T04:31:23;17.30;99.90
53782;DHT22;39692;53.114;7.060;2022-07-22T04:33:49;17.30;99.90
53782;DHT22;39692;53.114;7.060;2022-07-22T04:36:15;17.30;99.90
53782;DHT22;39692;53.114;7.060;2022-07-22T04:38:40;17.40;99.90
53782;DHT22;39692;53.114;7.060;2022-07-22T04:41:06;17.40;99.90
53782;DHT22;39692;53.114;7.060;2022-07-22T04:45:58;17.40;99.90
53782;DHT22;39692;53.114;7.060;2022-07-22T04:48:24;17.50;99.90
53782;DHT22;39692;53.114;7.060;2022-07-22T04:50:50;17.50;99.90
53782;DHT22;39692;53.114;7.060;2022-07-22T04:53:15;17.50;99.90
53782;DHT22;39692;53.114;7.060;2022-07-22T04:55:41;17.40;99.90
53782;DHT22;39692;53.114;7.060;2022-07-22T04:58:07;17.50;99.90
53782;DHT22;39692;53.114;7.060;2022-07-22T05:00:33;17.40;99.90
53782;DHT22;39692;53.114;7.060;2022-07-22T05:02:59;17.50;99.90
53782;DHT22;39692;53.114;7.060;2022-07-22T05:05:24;17.50;99.90
53782;DHT22;39692;53.114;7.060;2022-07-22T05:07:50;17.60;99.90
53782;DHT22;39692;53.114;7.060;2022-07-22T05:10:16;17.60;99.90
53782;DHT22;39692;53.114;7.060;2022-07-22T05:12:42;17.60;99.90
53782;DHT22;39692;53.114;7.060;2022-07-22T05:15:08;17.70;99.90
53782;DHT22;39692;53.114;7.060;2022-07-22T05:17:33;17.70;99.90
53782;DHT22;39692;53.114;7.060;2022-07-22T05:20:02;17.60;99.90
53782;DHT22;39692;53.114;7.060;2022-07-22T05:22:28;17.70;99.90
53782;DHT22;39692;53.114;7.060;2022-07-22T05:24:54;17.70;99.90
53782;DHT22;39692;53.114;7.060;2022-07-22T05:27:19;17.70;99.90
53782;DHT22;39692;53.114;7.060;2022-07-22T05:29:45;17.80;99.90
53782;DHT22;39692;53.114;7.060;2022-07-22T05:32:11;17.90;99.90
53782;DHT22;39692;53.114;7.060;2022-07-22T05:34:36;17.90;99.90
53782;DHT22;39692;53.114;7.060;2022-07-22T05:37:02;18.00;99.90
53782;DHT22;39692;53.114;7.060;2022-07-22T05:39:28;18.00;99.90
53782;DHT22;39692;53.114;7.060;2022-07-22T05:41:53;18.00;99.90
53782;DHT22;39692;53.114;7.060;2022-07-22T05:44:19;18.00;99.90
53782;DHT22;39692;53.114;7.060;2022-07-22T05:46:45;18.10;99.90
53782;DHT22;39692;53.114;7.060;2022-07-22T05:49:10;18.10;99.90
53782;DHT22;39692;53.114;7.060;2022-07-22T05:51:36;18.10;99.90
53782;DHT22;39692;53.114;7.060;2022-07-22T05:54:02;18.10;99.90
53782;DHT22;39692;53.114;7.060;2022-07-22T05:56:28;18.10;99.90
53782;DHT22;39692;53.114;7.060;2022-07-22T05:58:54;18.20;99.90
53782;DHT22;39692;53.114;7.060;2022-07-22T06:01:21;18.20;99.90
53782;DHT22;39692;53.114;7.060;2022-07-22T06:03:47;18.30;99.90
53782;DHT22;39692;53.114;7.060;2022-07-22T06:06:13;18.40;99.90
53782;DHT22;39692;53.114;7.060;2022-07-22T06:08:39;18.40;99.90
53782;DHT22;39692;53.114;7.060;2022-07-22T06:11:05;18.50;99.90
53782;DHT22;39692;53.114;7.060;2022-07-22T06:13:30;18.60;99.90
53782;DHT22;39692;53.114;7.060;2022-07-22T06:15:56;18.60;99.90
53782;DHT22;39692;53.114;7.060;2022-07-22T06:18:22;18.70;99.90
53782;DHT22;39692;53.114;7.060;2022-07-22T06:20:47;18.80;99.90
53782;DHT22;39692;53.114;7.060;2022-07-22T06:23:13;18.80;99.90
53782;DHT22;39692;53.114;7.060;2022-07-22T06:25:39;18.80;99.90
53782;DHT22;39692;53.114;7.060;2022-07-22T06:28:05;18.80;99.90
53782;DHT22;39692;53.114;7.060;2022-07-22T06:30:31;18.70;99.90
53782;DHT22;39692;53.114;7.060;2022-07-22T06:32:56;18.70;99.90
53782;DHT22;39692;53.114;7.060;2022-07-22T06:35:22;18.70;99.90
53782;DHT22;39692;53.114;7.060;2022-07-22T06:37:50;18.60;99.90
53782;DHT22;39692;53.114;7.060;2022-07-22T06:40:16;18.60;99.90
53782;DHT22;39692;53.114;7.060;2022-07-22T06:42:41;18.60;99.90
53782;DHT22;39692;53.114;7.060;2022-07-22T06:45:07;18.60;99.90
53782;DHT22;39692;53.114;7.060;2022-07-22T06:47:33;18.60;99.90
53782;DHT22;39692;53.114;7.060;2022-07-22T06:50:05;18.60;99.90
53782;DHT22;39692;53.114;7.060;2022-07-22T06:52:32;18.70;99.90
53782;DHT22;39692;53.114;7.060;2022-07-22T06:54:57;18.70;99.90
53782;DHT22;39692;53.114;7.060;2022-07-22T06:57:23;18.80;99.90
53782;DHT22;39692;53.114;7.060;2022-07-22T06:59:49;18.90;99.90
53782;DHT22;39692;53.114;7.060;2022-07-22T07:02:15;19.00;99.90
53782;DHT22;39692;53.114;7.060;2022-07-22T07:04:41;19.00;99.90
53782;DHT22;39692;53.114;7.060;2022-07-22T07:07:08;19.10;99.90
53782;DHT22;39692;53.114;7.060;2022-07-22T07:09:33;19.30;99.90
53782;DHT22;39692;53.114;7.060;2022-07-22T07:11:59;19.40;99.90
53782;DHT22;39692;53.114;7.060;2022-07-22T07:14:25;19.40;99.90
53782;DHT22;39692;53.114;7.060;2022-07-22T07:16:50;19.50;99.90
53782;DHT22;39692;53.114;7.060;2022-07-22T07:19:16;19.50;99.90
53782;DHT22;39692;53.114;7.060;2022-07-22T07:21:42;19.50;99.90
53782;DHT22;39692;53.114;7.060;2022-07-22T07:24:08;19.60;99.90
53782;DHT22;39692;53.114;7.060;2022-07-22T07:26:33;19.70;99.90
53782;DHT22;39692;53.114;7.060;2022-07-22T07:28:59;19.80;99.90
53782;DHT22;39692;53.114;7.060;2022-07-22T07:31:25;19.80;99.90
53782;DHT22;39692;53.114;7.060;2022-07-22T07:33:50;19.90;99.90
53782;DHT22;39692;53.114;7.060;2022-07-22T07:36:16;20.00;99.90
53782;DHT22;39692;53.114;7.060;2022-07-22T07:38:42;20.10;99.90
53782;DHT22;39692;53.114;7.060;2022-07-22T07:41:08;20.10;99.90
53782;DHT22;39692;53.114;7.060;2022-07-22T07:43:34;20.30;99.90
53782;DHT22;39692;53.114;7.060;2022-07-22T07:46:00;20.30;99.90
53782;DHT22;39692;53.114;7.060;2022-07-22T07:48:26;20.40;99.90
53782;DHT22;39692;53.114;7.060;2022-07-22T07:50:52;20.40;99.90
53782;DHT22;39692;53.114;7.060;2022-07-22T07:53:17;20.50;99.90
53782;DHT22;39692;53.114;7.060;2022-07-22T07:55:44;20.60;99.90
53782;DHT22;39692;53.114;7.060;2022-07-22T07:58:09;20.60;99.90
53782;DHT22;39692;53.114;7.060;2022-07-22T08:00:36;20.60;99.90
53782;DHT22;39692;53.114;7.060;2022-07-22T08:03:03;20.70;99.90
53782;DHT22;39692;53.114;7.060;2022-07-22T08:05:29;20.80;99.60
53782;DHT22;39692;53.114;7.060;2022-07-22T08:07:55;20.80;99.20
53782;DHT22;39692;53.114;7.060;2022-07-22T08:10:21;20.90;98.10
53782;DHT22;39692;53.114;7.060;2022-07-22T08:12:47;21.00;98.30
53782;DHT22;39692;53.114;7.060;2022-07-22T08:15:14;21.10;96.30
53782;DHT22;39692;53.114;7.060;2022-07-22T08:17:39;21.30;94.80
53782;DHT22;39692;53.114;7.060;2022-07-22T08:20:06;21.30;93.20
53782;DHT22;39692;53.114;7.060;2022-07-22T08:22:33;21.40;91.60
53782;DHT22;39692;53.114;7.060;2022-07-22T08:24:59;21.50;91.20
53782;DHT22;39692;53.114;7.060;2022-07-22T08:27:25;21.60;91.20
53782;DHT22;39692;53.114;7.060;2022-07-22T08:29:50;21.70;92.10
53782;DHT22;39692;53.114;7.060;2022-07-22T08:32:16;21.70;90.50
53782;DHT22;39692;53.114;7.060;2022-07-22T08:34:42;21.70;86.70
53782;DHT22;39692;53.114;7.060;2022-07-22T08:37:08;21.70;87.90
53782;DHT22;39692;53.114;7.060;2022-07-22T08:39:33;21.60;87.00
53782;DHT22;39692;53.114;7.060;2022-07-22T08:42:00;21.60;87.20
53782;DHT22;39692;53.114;7.060;2022-07-22T08:44:29;21.50;87.00
53782;DHT22;39692;53.114;7.060;2022-07-22T08:46:55;21.40;87.30
53782;DHT22;39692;53.114;7.060;2022-07-22T08:49:21;21.20;89.40
53782;DHT22;39692;53.114;7.060;2022-07-22T08:51:47;21.10;87.90
53782;DHT22;39692;53.114;7.060;2022-07-22T08:54:13;21.10;87.50
53782;DHT22;39692;53.114;7.060;2022-07-22T08:56:38;21.00;90.40
53782;DHT22;39692;53.114;7.060;2022-07-22T08:59:04;21.00;89.20
53782;DHT22;39692;53.114;7.060;2022-07-22T09:01:30;21.10;86.80
53782;DHT22;39692;53.114;7.060;2022-07-22T09:03:57;21.10;88.70
53782;DHT22;39692;53.114;7.060;2022-07-22T09:06:24;21.10;87.70
53782;DHT22;39692;53.114;7.060;2022-07-22T09:11:19;21.10;84.20
53782;DHT22;39692;53.114;7.060;2022-07-22T09:13:45;21.10;82.20
53782;DHT22;39692;53.114;7.060;2022-07-22T09:16:11;21.10;81.50
53782;DHT22;39692;53.114;7.060;2022-07-22T09:18:51;21.10;82.50
53782;DHT22;39692;53.114;7.060;2022-07-22T09:21:17;21.10;80.70
53782;DHT22;39692;53.114;7.060;2022-07-22T09:23:43;21.20;82.50
53782;DHT22;39692;53.114;7.060;2022-07-22T09:26:36;21.30;82.90
53782;DHT22;39692;53.114;7.060;2022-07-22T09:29:03;21.40;81.40
53782;DHT22;39692;53.114;7.060;2022-07-22T09:31:31;21.40;82.00
53782;DHT22;39692;53.114;7.060;2022-07-22T09:33:58;21.50;80.70
53782;DHT22;39692;53.114;7.060;2022-07-22T09:36:24;21.60;81.70
53782;DHT22;39692;53.114;7.060;2022-07-22T09:38:50;21.60;80.60
53782;DHT22;39692;53.114;7.060;2022-07-22T09:41:17;21.60;80.60
53782;DHT22;39692;53.114;7.060;2022-07-22T09:43:43;21.50;79.70
53782;DHT22;39692;53.114;7.060;2022-07-22T09:46:09;21.40;81.10
53782;DHT22;39692;53.114;7.060;2022-07-22T09:48:37;21.30;83.60
53782;DHT22;39692;53.114;7.060;2022-07-22T09:51:04;21.20;85.30
53782;DHT22;39692;53.114;7.060;2022-07-22T09:53:30;21.10;87.20
53782;DHT22;39692;53.114;7.060;2022-07-22T09:55:58;21.10;86.40
53782;DHT22;39692;53.114;7.060;2022-07-22T09:58:25;21.00;86.10
53782;DHT22;39692;53.114;7.060;2022-07-22T10:00:51;21.00;87.30
53782;DHT22;39692;53.114;7.060;2022-07-22T10:03:25;21.00;88.90
53782;DHT22;39692;53.114;7.060;2022-07-22T10:05:51;21.00;87.70
53782;DHT22;39692;53.114;7.060;2022-07-22T10:08:18;20.90;88.80
53782;DHT22;39692;53.114;7.060;2022-07-22T10:10:44;20.90;89.70
53782;DHT22;39692;53.114;7.060;2022-07-22T10:13:10;20.90;90.90
53782;DHT22;39692;53.114;7.060;2022-07-22T10:15:37;20.90;91.60
53782;DHT22;39692;53.114;7.060;2022-07-22T10:18:06;20.80;92.10
53782;DHT22;39692;53.114;7.060;2022-07-22T10:20:33;20.70;92.40
53782;DHT22;39692;53.114;7.060;2022-07-22T10:23:01;20.70;91.80
53782;DHT22;39692;53.114;7.060;2022-07-22T10:25:29;20.60;93.70
53782;DHT22;39692;53.114;7.060;2022-07-22T10:27:59;20.60;94.30
53782;DHT22;39692;53.114;7.060;2022-07-22T10:30:30;20.60;96.10
53782;DHT22;39692;53.114;7.060;2022-07-22T10:33:09;20.60;96.90
53782;DHT22;39692;53.114;7.060;2022-07-22T10:35:53;20.70;97.80
53782;DHT22;39692;53.114;7.060;2022-07-22T10:38:18;20.70;95.00
53782;DHT22;39692;53.114;7.060;2022-07-22T10:41:00;20.70;96.40
53782;DHT22;39692;53.114;7.060;2022-07-22T10:46:11;20.80;97.20
53782;DHT22;39692;53.114;7.060;2022-07-22T10:51:16;21.00;98.10
53782;DHT22;39692;53.114;7.060;2022-07-22T10:56:15;21.10;95.00
53782;DHT22;39692;53.114;7.060;2022-07-22T11:01:37;21.20;93.20
53782;DHT22;39692;53.114;7.060;2022-07-22T11:06:37;21.40;92.30
53782;DHT22;39692;53.114;7.060;2022-07-22T11:09:09;21.50;92.20
53782;DHT22;39692;53.114;7.060;2022-07-22T11:11:47;21.70;89.50
53782;DHT22;39692;53.114;7.060;2022-07-22T11:14:30;21.80;90.20
53782;DHT22;39692;53.114;7.060;2022-07-22T11:16:59;22.00;88.40
53782;DHT22;39692;53.114;7.060;2022-07-22T11:19:27;22.30;85.50
53782;DHT22;39692;53.114;7.060;2022-07-22T11:21:58;22.50;82.20
53782;DHT22;39692;53.114;7.060;2022-07-22T11:24:25;22.60;78.70
53782;DHT22;39692;53.114;7.060;2022-07-22T11:26:53;22.80;78.00
53782;DHT22;39692;53.114;7.060;2022-07-22T11:29:36;22.90;77.00
53782;DHT22;39692;53.114;7.060;2022-07-22T11:32:08;23.00;76.00
53782;DHT22;39692;53.114;7.060;2022-07-22T11:34:39;23.10;76.10
53782;DHT22;39692;53.114;7.060;2022-07-22T11:37:08;23.20;73.60
53782;DHT22;39692;53.114;7.060;2022-07-22T11:39:34;23.10;73.90
53782;DHT22;39692;53.114;7.060;2022-07-22T11:42:01;23.10;74.40
53782;DHT22;39692;53.114;7.060;2022-07-22T11:44:29;23.10;75.00
53782;DHT22;39692;53.114;7.060;2022-07-22T11:46:56;23.20;74.30
53782;DHT22;39692;53.114;7.060;2022-07-22T11:49:24;23.30;73.00
53782;DHT22;39692;53.114;7.060;2022-07-22T11:51:51;23.40;73.30
53782;DHT22;39692;53.114;7.060;2022-07-22T11:54:18;23.60;74.10
53782;DHT22;39692;53.114;7.060;2022-07-22T11:56:47;23.60;71.80
53782;DHT22;39692;53.114;7.060;2022-07-22T11:59:16;23.60;70.90
53782;DHT22;39692;53.114;7.060;2022-07-22T12:01:43;23.70;70.90
53782;DHT22;39692;53.114;7.060;2022-07-22T12:04:11;23.70;71.30
53782;DHT22;39692;53.114;7.060;2022-07-22T12:06:41;23.80;71.20
53782;DHT22;39692;53.114;7.060;2022-07-22T12:09:24;23.70;71.00
53782;DHT22;39692;53.114;7.060;2022-07-22T12:11:54;23.60;70.10
53782;DHT22;39692;53.114;7.060;2022-07-22T12:14:29;23.50;72.80
53782;DHT22;39692;53.114;7.060;2022-07-22T12:19:27;23.40;76.50
53782;DHT22;39692;53.114;7.060;2022-07-22T12:24:34;23.40;74.70
53782;DHT22;39692;53.114;7.060;2022-07-22T12:27:08;23.50;74.80
53782;DHT22;39692;53.114;7.060;2022-07-22T12:32:08;23.50;72.00
53782;DHT22;39692;53.114;7.060;2022-07-22T12:37:13;23.70;71.20
53782;DHT22;39692;53.114;7.060;2022-07-22T12:39:39;23.90;71.00
53782;DHT22;39692;53.114;7.060;2022-07-22T12:42:17;24.00;70.70
53782;DHT22;39692;53.114;7.060;2022-07-22T12:45:00;24.00;68.10
53782;DHT22;39692;53.114;7.060;2022-07-22T12:52:42;23.30;70.30
53782;DHT22;39692;53.114;7.060;2022-07-22T12:55:08;22.90;71.00
53782;DHT22;39692;53.114;7.060;2022-07-22T12:57:34;22.40;72.20
53782;DHT22;39692;53.114;7.060;2022-07-22T12:59:59;21.80;73.90
53782;DHT22;39692;53.114;7.060;2022-07-22T13:02:25;21.40;77.80
53782;DHT22;39692;53.114;7.060;2022-07-22T13:04:51;21.30;80.10
53782;DHT22;39692;53.114;7.060;2022-07-22T13:07:16;21.30;82.30
53782;DHT22;39692;53.114;7.060;2022-07-22T13:09:42;21.10;84.10
53782;DHT22;39692;53.114;7.060;2022-07-22T13:12:08;21.00;87.10
53782;DHT22;39692;53.114;7.060;2022-07-22T13:14:33;21.00;89.20
53782;DHT22;39692;53.114;7.060;2022-07-22T13:16:59;21.10;88.20
53782;DHT22;39692;53.114;7.060;2022-07-22T13:19:25;21.20;91.20
53782;DHT22;39692;53.114;7.060;2022-07-22T13:21:50;21.20;93.70
53782;DHT22;39692;53.114;7.060;2022-07-22T13:24:16;21.10;94.70
53782;DHT22;39692;53.114;7.060;2022-07-22T13:26:41;21.10;95.80
53782;DHT22;39692;53.114;7.060;2022-07-22T13:29:07;21.20;97.00
53782;DHT22;39692;53.114;7.060;2022-07-22T13:31:33;21.20;98.10
53782;DHT22;39692;53.114;7.060;2022-07-22T13:33:59;21.20;98.10
53782;DHT22;39692;53.114;7.060;2022-07-22T13:36:24;21.20;97.90
53782;DHT22;39692;53.114;7.060;2022-07-22T13:38:50;21.10;96.30
53782;DHT22;39692;53.114;7.060;2022-07-22T13:41:17;21.10;96.00
53782;DHT22;39692;53.114;7.060;2022-07-22T13:43:43;21.10;97.20
53782;DHT22;39692;53.114;7.060;2022-07-22T13:46:09;21.10;96.50
53782;DHT22;39692;53.114;7.060;2022-07-22T13:48:35;21.10;97.80
53782;DHT22;39692;53.114;7.060;2022-07-22T13:51:00;21.10;96.60
53782;DHT22;39692;53.114;7.060;2022-07-22T13:53:26;21.00;95.80
53782;DHT22;39692;53.114;7.060;2022-07-22T13:55:52;21.00;94.90
53782;DHT22;39692;53.114;7.060;2022-07-22T13:58:17;21.10;95.10
53782;DHT22;39692;53.114;7.060;2022-07-22T14:00:43;21.20;94.10
53782;DHT22;39692;53.114;7.060;2022-07-22T14:03:09;21.30;93.70
53782;DHT22;39692;53.114;7.060;2022-07-22T14:05:35;21.40;94.30
53782;DHT22;39692;53.114;7.060;2022-07-22T14:08:00;21.50;94.80
53782;DHT22;39692;53.114;7.060;2022-07-22T14:10:26;21.50;94.50
53782;DHT22;39692;53.114;7.060;2022-07-22T14:12:52;21.60;95.70
53782;DHT22;39692;53.114;7.060;2022-07-22T14:15:17;21.70;95.40
53782;DHT22;39692;53.114;7.060;2022-07-22T14:17:43;21.80;92.40
53782;DHT22;39692;53.114;7.060;2022-07-22T14:20:09;21.90;91.20
53782;DHT22;39692;53.114;7.060;2022-07-22T14:22:35;21.90;90.40
53782;DHT22;39692;53.114;7.060;2022-07-22T14:25:01;22.00;88.70
53782;DHT22;39692;53.114;7.060;2022-07-22T14:27:26;22.00;88.60
53782;DHT22;39692;53.114;7.060;2022-07-22T14:29:52;22.00;89.00
53782;DHT22;39692;53.114;7.060;2022-07-22T14:32:18;21.90;87.70
53782;DHT22;39692;53.114;7.060;2022-07-22T14:34:45;21.90;87.80
53782;DHT22;39692;53.114;7.060;2022-07-22T14:37:10;21.80;86.70
53782;DHT22;39692;53.114;7.060;2022-07-22T14:39:36;21.80;89.40
53782;DHT22;39692;53.114;7.060;2022-07-22T14:42:01;21.60;91.70
53782;DHT22;39692;53.114;7.060;2022-07-22T14:44:27;21.60;92.70
53782;DHT22;39692;53.114;7.060;2022-07-22T14:46:53;21.60;93.20
53782;DHT22;39692;53.114;7.060;2022-07-22T14:49:18;21.70;94.00
53782;DHT22;39692;53.114;7.060;2022-07-22T14:51:44;21.60;92.10
53782;DHT22;39692;53.114;7.060;2022-07-22T14:54:10;21.70;92.50
53782;DHT22;39692;53.114;7.060;2022-07-22T14:56:37;21.70;91.70
53782;DHT22;39692;53.114;7.060;2022-07-22T14:59:04;21.60;91.80
53782;DHT22;39692;53.114;7.060;2022-07-22T15:01:30;21.60;94.00
53782;DHT22;39692;53.114;7.060;2022-07-22T15:03:56;21.50;93.20
53782;DHT22;39692;53.114;7.060;2022-07-22T15:06:22;21.40;93.00
53782;DHT22;39692;53.114;7.060;2022-07-22T15:08:48;21.20;93.80
53782;DHT22;39692;53.114;7.060;2022-07-22T15:11:14;21.10;97.30
53782;DHT22;39692;53.114;7.060;2022-07-22T15:13:39;21.10;97.10
53782;DHT22;39692;53.114;7.060;2022-07-22T15:16:05;21.00;98.50
53782;DHT22;39692;53.114;7.060;2022-07-22T15:18:31;21.00;95.70
53782;DHT22;39692;53.114;7.060;2022-07-22T15:20:56;20.90;95.00
53782;DHT22;39692;53.114;7.060;2022-07-22T15:23:23;20.80;95.20
53782;DHT22;39692;53.114;7.060;2022-07-22T15:25:59;20.70;99.60
53782;DHT22;39692;53.114;7.060;2022-07-22T15:28:25;20.70;98.20
53782;DHT22;39692;53.114;7.060;2022-07-22T15:30:52;20.70;98.10
53782;DHT22;39692;53.114;7.060;2022-07-22T15:33:17;20.70;98.90
53782;DHT22;39692;53.114;7.060;2022-07-22T15:35:45;20.70;97.60
53782;DHT22;39692;53.114;7.060;2022-07-22T15:38:11;20.70;96.90
53782;DHT22;39692;53.114;7.060;2022-07-22T15:40:36;20.70;98.80
53782;DHT22;39692;53.114;7.060;2022-07-22T15:43:04;20.70;99.90
53782;DHT22;39692;53.114;7.060;2022-07-22T15:45:30;20.70;99.90
53782;DHT22;39692;53.114;7.060;2022-07-22T15:47:56;20.70;99.90
53782;DHT22;39692;53.114;7.060;2022-07-22T15:50:21;20.60;98.80
53782;DHT22;39692;53.114;7.060;2022-07-22T15:52:48;20.60;99.80
53782;DHT22;39692;53.114;7.060;2022-07-22T15:55:15;20.50;99.90
53782;DHT22;39692;53.114;7.060;2022-07-22T15:57:41;20.50;99.90
53782;DHT22;39692;53.114;7.060;2022-07-22T16:00:26;20.40;99.70